sensor_id;sensor_type;location;lat;lon;timestamp;P1;durP1;ratioP1;P2;durP2;ratioP2
59828;SDS011;45708;51.848;107.620;2022-12-07T00:01:30;20.50;;;8.47;;
59828;SDS011;45708;51.848;107.620;2022-12-07T00:06:34;5.53;;;3.43;;
59828;SDS011;45708;51.848;107.620;2022-12-07T00:11:36;6.53;;;2.30;;
59828;SDS011;45708;51.848;107.620;2022-12-07T00:16:37;4.37;;;1.63;;
59828;SDS011;45708;51.848;107.620;2022-12-07T00:21:38;6.20;;;3.83;;
59828;SDS011;45708;51.848;107.620;2022-12-07T00:26:40;9.27;;;3.70;;
59828;SDS011;45708;51.848;107.620;2022-12-07T00:31:44;21.37;;;2.53;;
59828;SDS011;45708;51.848;107.620;2022-12-07T00:36:45;5.23;;;3.10;;
59828;SDS011;45708;51.848;107.620;2022-12-07T00:41:46;2.70;;;2.00;;
59828;SDS011;45708;51.848;107.620;2022-12-07T00:46:47;9.87;;;2.80;;
59828;SDS011;45708;51.848;107.620;2022-12-07T00:51:48;7.37;;;2.47;;
59828;SDS011;45708;51.848;107.620;2022-12-07T00:56:50;21.90;;;10.57;;
59828;SDS011;45708;51.848;107.620;2022-12-07T01:01:51;9.70;;;3.23;;
59828;SDS011;45708;51.848;107.620;2022-12-07T01:06:53;7.37;;;3.10;;
59828;SDS011;45708;51.848;107.620;2022-12-07T01:11:54;9.03;;;5.13;;
59828;SDS011;45708;51.848;107.620;2022-12-07T01:16:55;17.27;;;8.10;;
59828;SDS011;45708;51.848;107.620;2022-12-07T01:21:57;12.77;;;6.30;;
59828;SDS011;45708;51.848;107.620;2022-12-07T01:26:58;5.03;;;2.53;;
59828;SDS011;45708;51.848;107.620;2022-12-07T01:31:59;9.47;;;5.20;;
59828;SDS011;45708;51.848;107.620;2022-12-07T01:37:00;5.23;;;3.43;;
59828;SDS011;45708;51.848;107.620;2022-12-07T01:42:01;2.20;;;1.20;;
59828;SDS011;45708;51.848;107.620;2022-12-07T01:47:03;7.47;;;3.57;;
59828;SDS011;45708;51.848;107.620;2022-12-07T01:57:11;3.53;;;2.30;;
59828;SDS011;45708;51.848;107.620;2022-12-07T02:02:17;3.63;;;2.77;;
59828;SDS011;45708;51.848;107.620;2022-12-07T02:07:21;3.70;;;2.20;;
59828;SDS011;45708;51.848;107.620;2022-12-07T02:12:24;2.90;;;1.57;;
59828;SDS011;45708;51.848;107.620;2022-12-07T02:17:31;3.90;;;1.23;;
59828;SDS011;45708;51.848;107.620;2022-12-07T02:28:31;2.17;;;1.90;;
59828;SDS011;45708;51.848;107.620;2022-12-07T02:33:50;2.60;;;1.65;;
59828;SDS011;45708;51.848;107.620;2022-12-07T02:44:17;5.60;;;1.23;;
59828;SDS011;45708;51.848;107.620;2022-12-07T02:49:23;1.50;;;0.90;;
59828;SDS011;45708;51.848;107.620;2022-12-07T02:54:27;4.20;;;1.00;;
59828;SDS011;45708;51.848;107.620;2022-12-07T02:59:46;1.30;;;1.13;;
59828;SDS011;45708;51.848;107.620;2022-12-07T03:10:28;2.00;;;0.83;;
59828;SDS011;45708;51.848;107.620;2022-12-07T03:21:00;1.67;;;1.57;;
59828;SDS011;45708;51.848;107.620;2022-12-07T03:26:05;2.77;;;1.07;;
59828;SDS011;45708;51.848;107.620;2022-12-07T03:31:17;3.17;;;1.03;;
59828;SDS011;45708;51.848;107.620;2022-12-07T03:36:31;8.67;;;3.47;;
59828;SDS011;45708;51.848;107.620;2022-12-07T03:41:49;3.43;;;1.07;;
59828;SDS011;45708;51.848;107.620;2022-12-07T03:57:31;7.47;;;3.07;;
59828;SDS011;45708;51.848;107.620;2022-12-07T04:02:34;2.33;;;1.80;;
59828;SDS011;45708;51.848;107.620;2022-12-07T04:07:36;0.50;;;0.43;;
59828;SDS011;45708;51.848;107.620;2022-12-07T04:12:38;3.03;;;1.00;;
59828;SDS011;45708;51.848;107.620;2022-12-07T04:17:40;0.60;;;0.60;;
59828;SDS011;45708;51.848;107.620;2022-12-07T04:22:41;0.83;;;0.83;;
59828;SDS011;45708;51.848;107.620;2022-12-07T04:27:42;0.53;;;0.53;;
59828;SDS011;45708;51.848;107.620;2022-12-07T04:32:43;1.70;;;1.10;;
59828;SDS011;45708;51.848;107.620;2022-12-07T04:37:44;2.43;;;0.73;;
59828;SDS011;45708;51.848;107.620;2022-12-07T04:42:45;1.13;;;1.10;;
59828;SDS011;45708;51.848;107.620;2022-12-07T04:47:47;2.13;;;1.03;;
59828;SDS011;45708;51.848;107.620;2022-12-07T04:52:48;1.23;;;1.00;;
59828;SDS011;45708;51.848;107.620;2022-12-07T04:57:49;2.47;;;1.10;;
59828;SDS011;45708;51.848;107.620;2022-12-07T05:02:51;1.50;;;1.40;;
59828;SDS011;45708;51.848;107.620;2022-12-07T05:07:53;3.57;;;1.80;;
59828;SDS011;45708;51.848;107.620;2022-12-07T05:13:01;8.17;;;3.63;;
59828;SDS011;45708;51.848;107.620;2022-12-07T05:18:02;3.07;;;2.23;;
59828;SDS011;45708;51.848;107.620;2022-12-07T05:23:03;1.43;;;1.33;;
59828;SDS011;45708;51.848;107.620;2022-12-07T05:28:04;2.27;;;1.70;;
59828;SDS011;45708;51.848;107.620;2022-12-07T05:33:06;5.47;;;1.50;;
59828;SDS011;45708;51.848;107.620;2022-12-07T05:38:07;1.50;;;1.27;;
59828;SDS011;45708;51.848;107.620;2022-12-07T05:43:08;3.80;;;2.07;;
59828;SDS011;45708;51.848;107.620;2022-12-07T05:48:09;3.00;;;1.73;;
59828;SDS011;45708;51.848;107.620;2022-12-07T05:53:10;3.33;;;1.60;;
59828;SDS011;45708;51.848;107.620;2022-12-07T05:58:11;1.13;;;0.97;;
59828;SDS011;45708;51.848;107.620;2022-12-07T06:03:12;3.50;;;2.00;;
59828;SDS011;45708;51.848;107.620;2022-12-07T06:08:13;1.30;;;0.87;;
59828;SDS011;45708;51.848;107.620;2022-12-07T06:13:14;2.67;;;0.73;;
59828;SDS011;45708;51.848;107.620;2022-12-07T06:18:16;3.17;;;0.80;;
59828;SDS011;45708;51.848;107.620;2022-12-07T06:23:17;0.83;;;0.77;;
59828;SDS011;45708;51.848;107.620;2022-12-07T06:28:18;3.37;;;1.90;;
59828;SDS011;45708;51.848;107.620;2022-12-07T06:33:19;3.73;;;2.20;;
59828;SDS011;45708;51.848;107.620;2022-12-07T06:38:20;4.63;;;3.47;;
59828;SDS011;45708;51.848;107.620;2022-12-07T06:43:22;3.17;;;1.67;;
59828;SDS011;45708;51.848;107.620;2022-12-07T06:48:23;4.70;;;3.03;;
59828;SDS011;45708;51.848;107.620;2022-12-07T06:53:24;3.13;;;1.60;;
59828;SDS011;45708;51.848;107.620;2022-12-07T06:58:24;2.10;;;1.60;;
59828;SDS011;45708;51.848;107.620;2022-12-07T07:03:25;3.07;;;1.57;;
59828;SDS011;45708;51.848;107.620;2022-12-07T07:08:26;3.13;;;1.77;;
59828;SDS011;45708;51.848;107.620;2022-12-07T07:13:29;4.90;;;3.57;;
59828;SDS011;45708;51.848;107.620;2022-12-07T07:18:30;3.67;;;1.93;;
59828;SDS011;45708;51.848;107.620;2022-12-07T07:23:31;2.03;;;1.83;;
59828;SDS011;45708;51.848;107.620;2022-12-07T07:28:32;7.27;;;5.07;;
59828;SDS011;45708;51.848;107.620;2022-12-07T07:33:33;3.60;;;2.00;;
59828;SDS011;45708;51.848;107.620;2022-12-07T07:38:34;3.97;;;1.90;;
59828;SDS011;45708;51.848;107.620;2022-12-07T07:43:35;2.67;;;2.47;;
59828;SDS011;45708;51.848;107.620;2022-12-07T07:48:36;4.93;;;2.73;;
59828;SDS011;45708;51.848;107.620;2022-12-07T07:53:37;8.10;;;2.73;;
59828;SDS011;45708;51.848;107.620;2022-12-07T07:58:38;2.27;;;1.37;;
59828;SDS011;45708;51.848;107.620;2022-12-07T08:03:39;14.97;;;6.17;;
59828;SDS011;45708;51.848;107.620;2022-12-07T08:08:40;4.93;;;2.77;;
59828;SDS011;45708;51.848;107.620;2022-12-07T08:13:41;10.23;;;6.03;;
59828;SDS011;45708;51.848;107.620;2022-12-07T08:18:42;8.80;;;5.03;;
59828;SDS011;45708;51.848;107.620;2022-12-07T08:23:43;7.07;;;4.70;;
59828;SDS011;45708;51.848;107.620;2022-12-07T08:28:44;7.43;;;3.20;;
59828;SDS011;45708;51.848;107.620;2022-12-07T08:33:46;5.00;;;2.20;;
59828;SDS011;45708;51.848;107.620;2022-12-07T08:38:48;3.40;;;1.67;;
59828;SDS011;45708;51.848;107.620;2022-12-07T08:43:50;12.30;;;3.30;;
59828;SDS011;45708;51.848;107.620;2022-12-07T08:48:55;3.07;;;2.27;;
59828;SDS011;45708;51.848;107.620;2022-12-07T08:54:00;1.77;;;1.57;;
59828;SDS011;45708;51.848;107.620;2022-12-07T08:59:04;1.57;;;0.97;;
59828;SDS011;45708;51.848;107.620;2022-12-07T09:04:06;3.87;;;1.53;;
59828;SDS011;45708;51.848;107.620;2022-12-07T09:09:07;2.83;;;1.70;;
59828;SDS011;45708;51.848;107.620;2022-12-07T09:14:10;7.30;;;4.37;;
59828;SDS011;45708;51.848;107.620;2022-12-07T09:19:12;3.30;;;2.10;;
59828;SDS011;45708;51.848;107.620;2022-12-07T09:24:13;4.90;;;2.57;;
59828;SDS011;45708;51.848;107.620;2022-12-07T09:29:14;3.97;;;3.13;;
59828;SDS011;45708;51.848;107.620;2022-12-07T09:34:15;3.77;;;2.60;;
59828;SDS011;45708;51.848;107.620;2022-12-07T09:39:16;7.33;;;3.43;;
59828;SDS011;45708;51.848;107.620;2022-12-07T09:44:18;4.47;;;4.07;;
59828;SDS011;45708;51.848;107.620;2022-12-07T09:49:24;8.63;;;4.43;;
59828;SDS011;45708;51.848;107.620;2022-12-07T09:54:29;13.93;;;7.50;;
59828;SDS011;45708;51.848;107.620;2022-12-07T09:59:30;7.30;;;4.13;;
59828;SDS011;45708;51.848;107.620;2022-12-07T10:04:32;14.20;;;6.40;;
59828;SDS011;45708;51.848;107.620;2022-12-07T10:09:33;11.57;;;5.20;;
59828;SDS011;45708;51.848;107.620;2022-12-07T10:14:34;8.90;;;5.93;;
59828;SDS011;45708;51.848;107.620;2022-12-07T10:19:37;2.13;;;1.97;;
59828;SDS011;45708;51.848;107.620;2022-12-07T10:24:39;4.20;;;0.93;;
59828;SDS011;45708;51.848;107.620;2022-12-07T10:29:42;4.60;;;2.20;;
59828;SDS011;45708;51.848;107.620;2022-12-07T10:34:50;4.15;;;1.77;;
59828;SDS011;45708;51.848;107.620;2022-12-07T10:39:55;3.43;;;2.63;;
59828;SDS011;45708;51.848;107.620;2022-12-07T10:45:07;4.23;;;2.20;;
59828;SDS011;45708;51.848;107.620;2022-12-07T11:06:39;4.47;;;2.13;;
59828;SDS011;45708;51.848;107.620;2022-12-07T11:12:09;1.83;;;1.67;;
59828;SDS011;45708;51.848;107.620;2022-12-07T11:27:39;4.77;;;2.17;;
59828;SDS011;45708;51.848;107.620;2022-12-07T11:33:10;14.60;;;5.23;;
59828;SDS011;45708;51.848;107.620;2022-12-07T11:38:17;15.23;;;7.50;;
59828;SDS011;45708;51.848;107.620;2022-12-07T11:43:27;12.20;;;7.27;;
59828;SDS011;45708;51.848;107.620;2022-12-07T11:48:37;9.77;;;4.60;;
59828;SDS011;45708;51.848;107.620;2022-12-07T11:53:46;7.37;;;4.93;;
59828;SDS011;45708;51.848;107.620;2022-12-07T12:04:26;4.77;;;3.60;;
59828;SDS011;45708;51.848;107.620;2022-12-07T12:31:05;6.27;;;2.73;;
59828;SDS011;45708;51.848;107.620;2022-12-07T12:36:21;2.35;;;1.73;;
59828;SDS011;45708;51.848;107.620;2022-12-07T12:46:37;4.23;;;2.20;;
59828;SDS011;45708;51.848;107.620;2022-12-07T12:51:52;5.55;;;3.78;;
59828;SDS011;45708;51.848;107.620;2022-12-07T12:57:13;4.33;;;3.10;;
59828;SDS011;45708;51.848;107.620;2022-12-07T13:02:30;4.63;;;1.53;;
59828;SDS011;45708;51.848;107.620;2022-12-07T13:12:55;1.10;;;0.90;;
59828;SDS011;45708;51.848;107.620;2022-12-07T13:18:04;2.87;;;1.40;;
59828;SDS011;45708;51.848;107.620;2022-12-07T13:23:08;13.13;;;1.87;;
59828;SDS011;45708;51.848;107.620;2022-12-07T13:28:20;5.10;;;1.63;;
59828;SDS011;45708;51.848;107.620;2022-12-07T13:33:23;4.57;;;3.57;;
59828;SDS011;45708;51.848;107.620;2022-12-07T13:38:34;2.47;;;1.33;;
59828;SDS011;45708;51.848;107.620;2022-12-07T13:43:44;4.07;;;2.63;;
59828;SDS011;45708;51.848;107.620;2022-12-07T13:48:53;4.77;;;1.63;;
59828;SDS011;45708;51.848;107.620;2022-12-07T13:53:56;7.93;;;3.03;;
59828;SDS011;45708;51.848;107.620;2022-12-07T13:59:02;15.97;;;4.17;;
59828;SDS011;45708;51.848;107.620;2022-12-07T14:04:18;7.67;;;4.73;;
59828;SDS011;45708;51.848;107.620;2022-12-07T14:09:25;5.00;;;3.70;;
59828;SDS011;45708;51.848;107.620;2022-12-07T14:14:29;8.10;;;3.77;;
59828;SDS011;45708;51.848;107.620;2022-12-07T14:24:42;5.63;;;3.43;;
59828;SDS011;45708;51.848;107.620;2022-12-07T14:29:43;9.70;;;6.40;;
59828;SDS011;45708;51.848;107.620;2022-12-07T14:35:00;10.33;;;4.80;;
59828;SDS011;45708;51.848;107.620;2022-12-07T14:40:16;11.85;;;5.40;;
59828;SDS011;45708;51.848;107.620;2022-12-07T14:45:24;16.43;;;7.23;;
59828;SDS011;45708;51.848;107.620;2022-12-07T14:50:26;14.03;;;6.97;;
59828;SDS011;45708;51.848;107.620;2022-12-07T14:55:31;20.37;;;7.43;;
59828;SDS011;45708;51.848;107.620;2022-12-07T15:00:32;4.63;;;2.73;;
59828;SDS011;45708;51.848;107.620;2022-12-07T15:05:33;8.90;;;5.57;;
59828;SDS011;45708;51.848;107.620;2022-12-07T15:10:35;7.67;;;2.73;;
59828;SDS011;45708;51.848;107.620;2022-12-07T15:15:36;12.63;;;7.23;;
59828;SDS011;45708;51.848;107.620;2022-12-07T15:20:37;13.30;;;4.90;;
59828;SDS011;45708;51.848;107.620;2022-12-07T15:25:42;12.53;;;5.87;;
59828;SDS011;45708;51.848;107.620;2022-12-07T15:30:44;13.27;;;8.17;;
59828;SDS011;45708;51.848;107.620;2022-12-07T15:35:45;29.20;;;12.30;;
59828;SDS011;45708;51.848;107.620;2022-12-07T15:40:46;17.97;;;8.43;;
59828;SDS011;45708;51.848;107.620;2022-12-07T15:45:49;23.03;;;6.93;;
59828;SDS011;45708;51.848;107.620;2022-12-07T15:50:50;21.03;;;7.90;;
59828;SDS011;45708;51.848;107.620;2022-12-07T15:55:51;18.17;;;9.77;;
59828;SDS011;45708;51.848;107.620;2022-12-07T16:00:52;14.30;;;9.00;;
59828;SDS011;45708;51.848;107.620;2022-12-07T16:05:53;20.93;;;8.43;;
59828;SDS011;45708;51.848;107.620;2022-12-07T16:10:53;20.07;;;9.93;;
59828;SDS011;45708;51.848;107.620;2022-12-07T16:15:55;21.90;;;7.73;;
59828;SDS011;45708;51.848;107.620;2022-12-07T16:20:56;10.67;;;5.53;;
59828;SDS011;45708;51.848;107.620;2022-12-07T16:26:04;13.97;;;5.33;;
59828;SDS011;45708;51.848;107.620;2022-12-07T16:31:11;5.77;;;3.80;;
59828;SDS011;45708;51.848;107.620;2022-12-07T16:36:14;7.50;;;5.43;;
59828;SDS011;45708;51.848;107.620;2022-12-07T16:41:16;8.20;;;4.53;;
59828;SDS011;45708;51.848;107.620;2022-12-07T16:46:18;4.60;;;3.40;;
59828;SDS011;45708;51.848;107.620;2022-12-07T16:51:18;5.03;;;4.27;;
59828;SDS011;45708;51.848;107.620;2022-12-07T16:56:19;14.30;;;7.33;;
59828;SDS011;45708;51.848;107.620;2022-12-07T17:01:21;9.13;;;5.37;;
59828;SDS011;45708;51.848;107.620;2022-12-07T17:06:23;12.27;;;4.13;;
59828;SDS011;45708;51.848;107.620;2022-12-07T17:11:27;10.83;;;5.53;;
59828;SDS011;45708;51.848;107.620;2022-12-07T17:16:29;11.43;;;2.93;;
59828;SDS011;45708;51.848;107.620;2022-12-07T17:21:31;4.07;;;2.90;;
59828;SDS011;45708;51.848;107.620;2022-12-07T17:26:32;5.77;;;3.30;;
59828;SDS011;45708;51.848;107.620;2022-12-07T17:31:33;5.57;;;3.03;;
59828;SDS011;45708;51.848;107.620;2022-12-07T17:36:35;12.63;;;4.23;;
59828;SDS011;45708;51.848;107.620;2022-12-07T17:41:36;11.03;;;2.77;;
59828;SDS011;45708;51.848;107.620;2022-12-07T17:46:38;15.10;;;6.50;;
59828;SDS011;45708;51.848;107.620;2022-12-07T17:51:39;5.23;;;2.37;;
59828;SDS011;45708;51.848;107.620;2022-12-07T17:56:40;13.60;;;5.90;;
59828;SDS011;45708;51.848;107.620;2022-12-07T18:01:41;7.67;;;3.50;;
59828;SDS011;45708;51.848;107.620;2022-12-07T18:06:43;20.07;;;6.17;;
59828;SDS011;45708;51.848;107.620;2022-12-07T18:11:44;8.83;;;3.67;;
59828;SDS011;45708;51.848;107.620;2022-12-07T18:16:45;7.07;;;3.73;;
59828;SDS011;45708;51.848;107.620;2022-12-07T18:21:46;5.23;;;2.07;;
59828;SDS011;45708;51.848;107.620;2022-12-07T18:26:48;5.23;;;2.43;;
59828;SDS011;45708;51.848;107.620;2022-12-07T18:31:49;8.30;;;4.07;;
59828;SDS011;45708;51.848;107.620;2022-12-07T18:36:50;5.87;;;2.40;;
59828;SDS011;45708;51.848;107.620;2022-12-07T18:41:51;4.43;;;1.00;;
59828;SDS011;45708;51.848;107.620;2022-12-07T18:46:52;3.07;;;1.53;;
59828;SDS011;45708;51.848;107.620;2022-12-07T18:51:53;6.63;;;1.93;;
59828;SDS011;45708;51.848;107.620;2022-12-07T18:56:54;2.77;;;2.47;;
59828;SDS011;45708;51.848;107.620;2022-12-07T19:01:55;1.97;;;1.47;;
59828;SDS011;45708;51.848;107.620;2022-12-07T19:06:56;2.67;;;1.20;;
59828;SDS011;45708;51.848;107.620;2022-12-07T19:11:57;4.47;;;1.07;;
59828;SDS011;45708;51.848;107.620;2022-12-07T19:16:59;1.60;;;1.10;;
59828;SDS011;45708;51.848;107.620;2022-12-07T19:22:01;6.37;;;3.07;;
59828;SDS011;45708;51.848;107.620;2022-12-07T19:27:06;3.50;;;1.17;;
59828;SDS011;45708;51.848;107.620;2022-12-07T19:32:08;4.03;;;0.87;;
59828;SDS011;45708;51.848;107.620;2022-12-07T19:37:12;3.40;;;2.43;;
59828;SDS011;45708;51.848;107.620;2022-12-07T19:42:13;6.03;;;1.77;;
59828;SDS011;45708;51.848;107.620;2022-12-07T19:47:14;1.73;;;1.23;;
59828;SDS011;45708;51.848;107.620;2022-12-07T19:52:15;1.60;;;1.17;;
59828;SDS011;45708;51.848;107.620;2022-12-07T19:57:16;4.67;;;2.20;;
59828;SDS011;45708;51.848;107.620;2022-12-07T20:02:17;4.07;;;1.90;;
59828;SDS011;45708;51.848;107.620;2022-12-07T20:07:18;4.27;;;2.53;;
59828;SDS011;45708;51.848;107.620;2022-12-07T20:12:19;3.10;;;1.93;;
59828;SDS011;45708;51.848;107.620;2022-12-07T20:17:20;2.90;;;2.00;;
59828;SDS011;45708;51.848;107.620;2022-12-07T20:22:21;7.93;;;2.50;;
59828;SDS011;45708;51.848;107.620;2022-12-07T20:27:22;6.13;;;2.13;;
59828;SDS011;45708;51.848;107.620;2022-12-07T20:32:23;2.97;;;2.67;;
59828;SDS011;45708;51.848;107.620;2022-12-07T20:37:24;1.83;;;1.23;;
59828;SDS011;45708;51.848;107.620;2022-12-07T20:42:25;6.43;;;5.87;;
59828;SDS011;45708;51.848;107.620;2022-12-07T20:47:27;1.00;;;1.00;;
59828;SDS011;45708;51.848;107.620;2022-12-07T20:52:28;0.77;;;0.70;;
59828;SDS011;45708;51.848;107.620;2022-12-07T20:57:29;1.03;;;1.00;;
59828;SDS011;45708;51.848;107.620;2022-12-07T21:02:30;1.50;;;1.03;;
59828;SDS011;45708;51.848;107.620;2022-12-07T21:07:31;4.43;;;2.00;;
59828;SDS011;45708;51.848;107.620;2022-12-07T21:12:32;3.10;;;2.73;;
59828;SDS011;45708;51.848;107.620;2022-12-07T21:17:33;2.33;;;1.67;;
59828;SDS011;45708;51.848;107.620;2022-12-07T21:22:35;1.30;;;1.20;;
59828;SDS011;45708;51.848;107.620;2022-12-07T21:27:36;2.67;;;1.60;;
59828;SDS011;45708;51.848;107.620;2022-12-07T21:32:37;1.90;;;1.23;;
59828;SDS011;45708;51.848;107.620;2022-12-07T21:37:38;1.03;;;0.50;;
59828;SDS011;45708;51.848;107.620;2022-12-07T21:42:39;3.30;;;1.60;;
59828;SDS011;45708;51.848;107.620;2022-12-07T21:47:40;2.93;;;1.00;;
59828;SDS011;45708;51.848;107.620;2022-12-07T21:52:41;2.43;;;2.23;;
59828;SDS011;45708;51.848;107.620;2022-12-07T21:57:42;1.63;;;1.50;;
59828;SDS011;45708;51.848;107.620;2022-12-07T22:02:42;7.20;;;2.53;;
59828;SDS011;45708;51.848;107.620;2022-12-07T22:07:44;3.43;;;3.07;;
59828;SDS011;45708;51.848;107.620;2022-12-07T22:12:45;4.67;;;2.37;;
59828;SDS011;45708;51.848;107.620;2022-12-07T22:17:46;8.30;;;4.53;;
59828;SDS011;45708;51.848;107.620;2022-12-07T22:22:47;13.50;;;5.23;;
59828;SDS011;45708;51.848;107.620;2022-12-07T22:27:48;3.43;;;2.30;;
59828;SDS011;45708;51.848;107.620;2022-12-07T22:32:50;4.90;;;3.07;;
59828;SDS011;45708;51.848;107.620;2022-12-07T22:37:52;3.10;;;2.73;;
59828;SDS011;45708;51.848;107.620;2022-12-07T22:42:54;13.57;;;5.23;;
59828;SDS011;45708;51.848;107.620;2022-12-07T22:47:55;8.93;;;3.77;;
59828;SDS011;45708;51.848;107.620;2022-12-07T22:52:57;8.73;;;3.23;;
59828;SDS011;45708;51.848;107.620;2022-12-07T22:57:58;14.13;;;5.77;;
59828;SDS011;45708;51.848;107.620;2022-12-07T23:02:59;7.23;;;4.13;;
59828;SDS011;45708;51.848;107.620;2022-12-07T23:08:01;4.40;;;2.17;;
59828;SDS011;45708;51.848;107.620;2022-12-07T23:13:02;1.80;;;1.70;;
59828;SDS011;45708;51.848;107.620;2022-12-07T23:18:05;6.83;;;3.93;;
59828;SDS011;45708;51.848;107.620;2022-12-07T23:23:06;14.33;;;6.53;;
59828;SDS011;45708;51.848;107.620;2022-12-07T23:28:07;13.47;;;6.27;;
59828;SDS011;45708;51.848;107.620;2022-12-07T23:33:09;4.23;;;3.70;;
59828;SDS011;45708;51.848;107.620;2022-12-07T23:38:10;6.27;;;4.33;;
59828;SDS011;45708;51.848;107.620;2022-12-07T23:43:11;6.33;;;4.10;;
59828;SDS011;45708;51.848;107.620;2022-12-07T23:48:12;13.77;;;5.73;;
59828;SDS011;45708;51.848;107.620;2022-12-07T23:53:13;8.30;;;4.73;;
59828;SDS011;45708;51.848;107.620;2022-12-07T23:58:14;9.90;;;3.97;;
